Main page
METAR-TAF:

METAR-TAF

Airports :

London City Airport

London, England

latitude: 51-30N, longitude: 000-03E, elevation: 5 m

Current weather observation

The report was made 26 minutes ago, at 01:20 UTC
Wind 3 kt from variable directions
Temperature 1°C
Humidity 86%
Pressure 1012 hPa
Visibility 10 km or more

METAR: EGLC 200120Z AUTO VRB03KT 9999 NCD 01/M01 Q1012

Time: 01:46 (01:46 UTC)

Forecast

The report was made 17 hours and 50 minutes ago, at 07:56 UTC
Forecast valid from 19 at 09 UTC to 19 at 12 UTC
Wind 7 kt from the East/Southeast
Visibility 10 km or more
Broken clouds at a height of 2200 ft
Temporary
from 19 at 09 UTC to 19 at 12 UTC
Visibility: 6000 m
Broken clouds at a height of 1200 ft
light rain, drizzle
Becoming
from 19 at 10 UTC to 19 at 12 UTC
Broken clouds at a height of 800 ft

TAF: EGLC 190756Z 1909/1912 11007KT 9999 BKN022 TEMPO 1909/1912 6000 -RADZ BKN012 BECMG 1910/1912 BKN008

Weather observations and forecasts of more than 4000 airports (METAR and TAF reports).

The available stations are represented by yellow and red dots on the map.

Hover mouse over dot to see the name of the station.

Then click to see weather observations and forecasts.

To change the map : click on the green buttons with a black cross to zoom in, on the green button with a dash to zoom out, or on the green arrows for adjacent maps.


METAR-TAF: